createdAt,value
2023-01-17T00:00:45.753Z,100775.71
2023-01-17T00:03:08.459Z,100771.63
2023-01-17T00:05:38.435Z,100775.39
2023-01-17T00:08:08.129Z,100775.89
2023-01-17T00:10:22.924Z,100775.05
2023-01-17T00:12:37.568Z,100785.42
2023-01-17T00:14:50.655Z,100786.20
2023-01-17T00:17:03.930Z,100786.48
2023-01-17T00:19:33.169Z,100792.75
2023-01-17T00:22:02.358Z,100791.89
2023-01-17T00:24:29.152Z,100794.70
2023-01-17T00:26:55.076Z,100794.16
2023-01-17T00:29:05.798Z,100795.19
2023-01-17T00:31:19.097Z,100796.04
2023-01-17T00:33:30.439Z,100796.02
2023-01-17T00:35:41.410Z,100797.27
2023-01-17T00:38:01.377Z,100800.48
2023-01-17T00:40:14.375Z,100801.54
2023-01-17T00:42:25.896Z,100802.75
2023-01-17T00:44:55.488Z,100806.41
2023-01-17T00:47:24.642Z,100804.41
2023-01-17T00:49:53.752Z,100805.18
2023-01-17T00:52:23.609Z,100810.17
2023-01-17T00:54:53.068Z,100808.62
2023-01-17T00:57:22.984Z,100808.61
2023-01-17T00:59:53.168Z,100810.35
2023-01-17T01:02:22.323Z,100810.55
2023-01-17T01:04:52.349Z,100812.58
2023-01-17T01:07:21.748Z,100812.08
2023-01-17T01:09:51.395Z,100814.23
2023-01-17T01:12:21.048Z,100822.66
2023-01-17T01:14:50.186Z,100827.19
2023-01-17T01:17:19.832Z,100829.55
2023-01-17T01:19:49.416Z,100832.15
2023-01-17T01:22:18.496Z,100834.33
2023-01-17T01:24:47.975Z,100834.94
2023-01-17T01:27:17.622Z,100833.69
2023-01-17T01:29:47.657Z,100835.80
2023-01-17T01:32:17.046Z,100834.69
2023-01-17T01:34:29.947Z,100834.02
2023-01-17T01:36:42.808Z,100837.02
2023-01-17T01:38:55.832Z,100838.73
2023-01-17T01:41:09.524Z,100843.03
2023-01-17T01:43:24.694Z,100842.79
2023-01-17T01:45:38.499Z,100843.42
2023-01-17T01:47:52.621Z,100847.49
2023-01-17T01:50:07.302Z,100850.55
2023-01-17T01:52:21.577Z,100855.29
2023-01-17T01:54:38.685Z,100860.36
2023-01-17T01:56:52.396Z,100862.20
2023-01-17T01:59:11.928Z,100863.98
2023-01-17T02:01:25.988Z,100866.27
2023-01-17T02:03:39.718Z,100867.73
2023-01-17T02:05:52.946Z,100870.86
2023-01-17T02:08:09.604Z,100866.30
2023-01-17T02:10:23.407Z,100868.35
2023-01-17T02:12:37.191Z,100870.84
2023-01-17T02:14:49.846Z,100872.16
2023-01-17T02:17:15.119Z,100869.14
2023-01-17T02:20:00.865Z,100871.44
2023-01-17T02:22:36.287Z,100869.80
2023-01-17T02:25:10.711Z,100867.01
2023-01-17T02:27:31.422Z,100865.23
2023-01-17T02:30:23.386Z,100869.49
2023-01-17T02:32:48.052Z,100873.68
2023-01-17T02:35:08.968Z,100874.29
2023-01-17T02:37:28.886Z,100874.77
2023-01-17T02:39:48.576Z,100878.95
2023-01-17T02:42:08.195Z,100877.05
2023-01-17T02:44:25.187Z,100877.89
2023-01-17T02:46:46.667Z,100879.11
2023-01-17T02:49:01.537Z,100881.27
2023-01-17T02:51:42.179Z,100883.10
2023-01-17T02:54:07.377Z,100881.34
2023-01-17T02:56:33.051Z,100879.88
2023-01-17T02:59:02.016Z,100884.23
2023-01-17T03:01:23.313Z,100889.75
2023-01-17T03:03:48.228Z,100893.33
2023-01-17T03:06:12.989Z,100889.02
2023-01-17T03:08:26.987Z,100887.58
2023-01-17T03:10:40.468Z,100888.54
2023-01-17T03:12:53.834Z,100886.86
2023-01-17T03:15:07.249Z,100889.34
2023-01-17T03:17:20.307Z,100892.88
2023-01-17T03:19:33.623Z,100891.27
2023-01-17T03:21:47.021Z,100893.73
2023-01-17T03:24:00.112Z,100900.83
2023-01-17T03:26:13.849Z,100899.73
2023-01-17T03:28:26.956Z,100899.90
2023-01-17T03:30:40.822Z,100902.48
2023-01-17T03:32:53.972Z,100901.08
2023-01-17T03:35:07.157Z,100899.92
2023-01-17T03:37:20.807Z,100900.79
2023-01-17T03:39:34.667Z,100904.15
2023-01-17T03:41:47.900Z,100905.08
2023-01-17T03:44:02.285Z,100905.30
2023-01-17T03:46:25.998Z,100910.81
2023-01-17T03:48:39.468Z,100914.61
2023-01-17T03:50:55.815Z,100911.88
2023-01-17T03:53:09.119Z,100916.01
2023-01-17T03:55:23.469Z,100917.77
2023-01-17T03:57:37.696Z,100917.03
2023-01-17T03:59:50.845Z,100917.68
2023-01-17T04:02:05.229Z,100920.34
2023-01-17T04:04:19.083Z,100927.63
2023-01-17T04:06:32.361Z,100926.66
2023-01-17T04:08:45.686Z,100924.98
2023-01-17T04:10:58.715Z,100922.86
2023-01-17T04:13:11.990Z,100930.00
2023-01-17T04:15:25.116Z,100939.23
2023-01-17T04:17:38.496Z,100939.97
2023-01-17T04:19:52.018Z,100940.05
2023-01-17T04:22:05.115Z,100932.50
2023-01-17T04:24:18.294Z,100944.27
2023-01-17T04:26:31.358Z,100936.84
2023-01-17T04:28:44.733Z,100942.48
2023-01-17T04:31:00.943Z,100943.16
2023-01-17T04:33:14.919Z,100940.30
2023-01-17T04:35:28.077Z,100939.20
2023-01-17T04:37:40.976Z,100938.95
2023-01-17T04:39:54.829Z,100945.81
2023-01-17T04:42:08.227Z,100944.67
2023-01-17T04:44:21.569Z,100948.28
2023-01-17T04:46:34.846Z,100948.86
2023-01-17T04:48:48.281Z,100949.56
2023-01-17T04:51:08.159Z,100949.78
2023-01-17T04:53:21.947Z,100951.85
2023-01-17T04:55:35.154Z,100953.03
2023-01-17T04:57:48.138Z,100956.00
2023-01-17T05:00:01.020Z,100956.05
2023-01-17T05:02:14.203Z,100956.26
2023-01-17T05:04:28.086Z,100956.02
2023-01-17T05:06:41.639Z,100959.12
2023-01-17T05:08:55.629Z,100961.86
2023-01-17T05:11:08.622Z,100964.42
2023-01-17T05:13:22.081Z,100966.58
2023-01-17T05:15:35.649Z,100970.92
2023-01-17T05:17:48.658Z,100972.73
2023-01-17T05:20:02.173Z,100974.06
2023-01-17T05:22:17.920Z,100973.25
2023-01-17T05:24:31.692Z,100976.98
2023-01-17T05:26:45.296Z,100976.38
2023-01-17T05:28:58.266Z,100977.95
2023-01-17T05:31:11.823Z,100983.80
2023-01-17T05:33:25.004Z,100987.21
2023-01-17T05:35:38.386Z,100991.23
2023-01-17T05:37:53.787Z,100990.15
2023-01-17T05:40:07.288Z,100992.44
2023-01-17T05:42:20.336Z,100997.55
2023-01-17T05:44:33.498Z,100999.31
2023-01-17T05:46:47.837Z,100995.53
2023-01-17T05:49:00.705Z,100997.02
2023-01-17T05:51:13.629Z,100999.19
2023-01-17T05:53:26.771Z,101002.52
2023-01-17T05:55:41.233Z,101005.83
2023-01-17T05:57:54.801Z,101009.02
2023-01-17T06:00:08.907Z,101004.36
2023-01-17T06:02:22.004Z,101007.50
2023-01-17T06:04:36.160Z,101008.90
2023-01-17T06:06:49.455Z,101011.45
2023-01-17T06:09:03.545Z,101013.23
2023-01-17T06:11:17.046Z,101015.89
2023-01-17T06:13:30.491Z,101021.08
2023-01-17T06:15:44.659Z,101025.29
2023-01-17T06:17:58.438Z,101023.14
2023-01-17T06:20:14.847Z,101020.28
2023-01-17T06:22:28.179Z,101022.20
2023-01-17T06:24:41.199Z,101027.30
2023-01-17T06:26:54.639Z,101023.77
2023-01-17T06:29:08.460Z,101031.09
2023-01-17T06:31:21.684Z,101031.59
2023-01-17T06:33:34.828Z,101032.48
2023-01-17T06:35:54.179Z,101040.58
2023-01-17T06:38:07.386Z,101041.19
2023-01-17T06:40:21.645Z,101040.64
2023-01-17T06:42:34.669Z,101046.05
2023-01-17T06:44:47.644Z,101050.98
2023-01-17T06:47:01.158Z,101052.90
2023-01-17T06:49:15.526Z,101055.23
2023-01-17T06:51:29.052Z,101058.71
2023-01-17T06:53:41.874Z,101060.46
2023-01-17T06:55:55.306Z,101061.23
2023-01-17T06:58:09.125Z,101065.10
2023-01-17T07:00:23.961Z,101068.10
2023-01-17T07:02:36.946Z,101069.16
2023-01-17T07:04:50.667Z,101075.30
2023-01-17T07:07:04.266Z,101072.92
2023-01-17T07:09:17.330Z,101075.79
2023-01-17T07:11:30.443Z,101078.23
2023-01-17T07:13:45.126Z,101078.38
2023-01-17T07:15:58.698Z,101084.94
2023-01-17T07:18:12.801Z,101087.08
2023-01-17T07:20:26.747Z,101086.77
2023-01-17T07:22:39.854Z,101090.74
2023-01-17T07:24:59.657Z,101092.90
2023-01-17T07:27:13.326Z,101091.27
2023-01-17T07:29:26.476Z,101093.19
2023-01-17T07:31:41.608Z,101094.25
2023-01-17T07:33:55.201Z,101098.02
2023-01-17T07:36:10.480Z,101102.14
2023-01-17T07:38:24.209Z,101101.75
2023-01-17T07:40:42.058Z,101106.56
2023-01-17T07:42:56.415Z,101110.58
2023-01-17T07:45:11.537Z,101116.86
2023-01-17T07:47:25.986Z,101113.57
2023-01-17T07:49:39.199Z,101113.95
2023-01-17T07:51:53.944Z,101117.70
2023-01-17T07:54:07.096Z,101118.49
2023-01-17T07:56:20.183Z,101121.77
2023-01-17T07:58:33.619Z,101124.35
2023-01-17T08:00:47.170Z,101121.39
2023-01-17T08:03:04.568Z,101119.11
2023-01-17T08:05:17.897Z,101121.03
2023-01-17T08:07:31.284Z,101122.25
2023-01-17T08:09:44.936Z,101117.47
2023-01-17T08:11:58.176Z,101121.77
2023-01-17T08:14:11.247Z,101123.02
2023-01-17T08:16:24.730Z,101130.51
2023-01-17T08:18:38.007Z,101134.13
2023-01-17T08:20:51.625Z,101131.42
2023-01-17T08:23:04.583Z,101130.25
2023-01-17T08:25:18.060Z,101130.85
2023-01-17T08:27:31.815Z,101130.91
2023-01-17T08:29:48.208Z,101133.19
2023-01-17T08:32:01.543Z,101133.01
2023-01-17T08:34:15.376Z,101130.70
2023-01-17T08:36:29.679Z,101127.53
2023-01-17T08:38:43.189Z,101127.38
2023-01-17T08:40:56.265Z,101129.52
2023-01-17T08:43:10.335Z,101127.79
2023-01-17T08:45:24.380Z,101127.66
2023-01-17T08:47:38.106Z,101128.94
2023-01-17T08:49:51.129Z,101129.44
2023-01-17T08:52:06.437Z,101127.67
2023-01-17T08:54:19.315Z,101130.05
2023-01-17T08:56:32.504Z,101136.92
2023-01-17T08:58:45.512Z,101140.17
2023-01-17T09:00:58.769Z,101147.09
2023-01-17T09:03:15.156Z,101148.58
2023-01-17T09:05:28.313Z,101146.09
2023-01-17T09:07:41.176Z,101150.05
2023-01-17T09:09:54.209Z,101150.30
2023-01-17T09:12:08.659Z,101151.05
2023-01-17T09:14:21.578Z,101154.39
2023-01-17T09:16:35.223Z,101158.98
2023-01-17T09:18:48.685Z,101166.16
2023-01-17T09:21:03.120Z,101164.73
2023-01-17T09:23:16.217Z,101167.77
2023-01-17T09:25:29.236Z,101164.09
2023-01-17T09:27:42.146Z,101164.77
2023-01-17T09:29:55.074Z,101169.13
2023-01-17T09:32:08.725Z,101169.69
2023-01-17T09:34:21.637Z,101173.42
2023-01-17T09:36:35.117Z,101177.33
2023-01-17T09:38:49.230Z,101180.40
2023-01-17T09:41:02.728Z,101181.80
2023-01-17T09:43:29.539Z,101184.23
2023-01-17T09:45:43.406Z,101188.66
2023-01-17T09:47:58.057Z,101187.06
2023-01-17T09:50:24.146Z,101188.50
2023-01-17T09:52:38.658Z,101191.44
2023-01-17T09:54:54.389Z,101195.11
2023-01-17T09:57:16.924Z,101201.98
2023-01-17T09:59:39.420Z,101201.78
2023-01-17T10:01:58.765Z,101203.03
2023-01-17T10:04:27.918Z,101205.19
2023-01-17T10:06:56.131Z,101203.32
2023-01-17T10:09:32.584Z,101206.56
2023-01-17T10:12:04.455Z,101203.67
2023-01-17T10:14:37.050Z,101208.11
2023-01-17T10:16:58.607Z,101212.56
2023-01-17T10:19:33.349Z,101217.83
2023-01-17T10:22:08.987Z,101220.07
2023-01-17T10:25:02.276Z,101227.15
2023-01-17T10:27:25.236Z,101230.32
2023-01-17T10:29:38.209Z,101234.29
2023-01-17T10:31:53.537Z,101231.76
2023-01-17T10:34:15.917Z,101234.84
2023-01-17T10:36:30.111Z,101238.77
2023-01-17T10:38:48.145Z,101240.67
2023-01-17T10:41:11.195Z,101240.34
2023-01-17T10:43:32.207Z,101241.57
2023-01-17T10:45:52.283Z,101246.19
2023-01-17T10:48:13.129Z,101249.39
2023-01-17T10:50:28.313Z,101250.45
2023-01-17T10:52:54.055Z,101250.73
2023-01-17T10:55:28.038Z,101251.29
2023-01-17T10:57:44.714Z,101252.33
2023-01-17T11:00:01.454Z,101250.72
2023-01-17T11:02:25.611Z,101249.34
2023-01-17T11:04:41.590Z,101246.50
2023-01-17T11:07:15.085Z,101247.84
2023-01-17T11:09:43.638Z,101251.73
2023-01-17T11:11:57.698Z,101253.95
2023-01-17T11:14:19.722Z,101255.67
2023-01-17T11:16:34.746Z,101253.48
2023-01-17T11:18:49.866Z,101252.41
2023-01-17T11:21:14.563Z,101255.09
2023-01-17T11:23:33.465Z,101255.86
2023-01-17T11:25:56.235Z,101253.70
2023-01-17T11:28:21.327Z,101248.61
2023-01-17T11:30:35.080Z,101248.08
2023-01-17T11:32:56.082Z,101252.54
2023-01-17T11:35:23.957Z,101253.08
2023-01-17T11:37:37.635Z,101254.91
2023-01-17T11:39:51.616Z,101255.84
2023-01-17T11:42:08.805Z,101259.77
2023-01-17T11:44:33.706Z,101258.41
2023-01-17T11:46:48.456Z,101261.93
2023-01-17T11:49:03.806Z,101267.03
2023-01-17T11:51:27.694Z,101264.80
2023-01-17T11:53:44.217Z,101269.23
2023-01-17T11:56:06.946Z,101269.61
2023-01-17T11:58:23.005Z,101273.73
2023-01-17T12:00:41.487Z,101275.92
2023-01-17T12:03:16.718Z,101277.52
2023-01-17T12:05:54.757Z,101279.67
2023-01-17T12:08:19.485Z,101277.09
2023-01-17T12:10:38.998Z,101280.35
2023-01-17T12:13:18.123Z,101282.06
2023-01-17T12:15:59.284Z,101286.33
2023-01-17T12:18:37.409Z,101288.38
2023-01-17T12:20:59.546Z,101288.46
2023-01-17T12:23:33.811Z,101286.52
2023-01-17T12:26:10.106Z,101290.68
2023-01-17T12:29:03.818Z,101295.34
2023-01-17T12:31:26.424Z,101290.19
2023-01-17T12:33:42.175Z,101289.77
2023-01-17T12:35:59.159Z,101291.25
2023-01-17T12:38:31.749Z,101292.14
2023-01-17T12:40:53.076Z,101292.20
2023-01-17T12:43:11.215Z,101291.71
2023-01-17T12:45:33.285Z,101294.16
2023-01-17T12:47:50.327Z,101294.27
2023-01-17T12:50:11.804Z,101291.92
2023-01-17T12:52:38.690Z,101289.95
2023-01-17T12:54:56.758Z,101294.52
2023-01-17T12:57:15.917Z,101293.38
2023-01-17T12:59:39.737Z,101292.67
2023-01-17T13:02:00.377Z,101291.75
2023-01-17T13:04:27.836Z,101289.23
2023-01-17T13:06:49.105Z,101287.94
2023-01-17T13:09:05.055Z,101289.80
2023-01-17T13:11:24.528Z,101291.39
2023-01-17T13:13:40.505Z,101289.09
2023-01-17T13:15:56.350Z,101289.39
2023-01-17T13:18:17.320Z,101293.95
2023-01-17T13:20:36.595Z,101290.68
2023-01-17T13:22:50.752Z,101289.55
2023-01-17T13:25:15.626Z,101292.95
2023-01-17T13:27:57.617Z,101294.71
2023-01-17T13:30:45.165Z,101295.47
2023-01-17T13:33:24.881Z,101292.52
2023-01-17T13:35:47.765Z,101289.59
2023-01-17T13:38:19.949Z,101292.89
2023-01-17T13:40:43.284Z,101294.39
2023-01-17T13:43:01.547Z,101290.78
2023-01-17T13:45:24.716Z,101293.52
2023-01-17T13:47:46.077Z,101290.64
2023-01-17T13:49:59.787Z,101285.16
2023-01-17T13:52:15.225Z,101287.74
2023-01-17T13:54:45.909Z,101285.75
2023-01-17T13:57:42.151Z,101290.09
2023-01-17T13:59:56.581Z,101288.94
2023-01-17T14:02:29.835Z,101289.35
2023-01-17T14:05:12.888Z,101290.56
2023-01-17T14:07:32.331Z,101291.54
2023-01-17T14:09:47.625Z,101298.89
2023-01-17T14:12:10.766Z,101298.50
2023-01-17T14:14:59.875Z,101303.80
2023-01-17T14:17:37.605Z,101305.52
2023-01-17T14:19:53.415Z,101305.86
2023-01-17T14:22:26.466Z,101308.77
2023-01-17T14:24:58.658Z,101313.19
2023-01-17T14:27:27.037Z,101309.26
2023-01-17T14:29:58.527Z,101310.58
2023-01-17T14:32:13.215Z,101309.27
2023-01-17T14:34:28.717Z,101308.50
2023-01-17T14:36:41.745Z,101305.91
2023-01-17T14:38:54.877Z,101307.80
2023-01-17T14:41:13.028Z,101307.58
2023-01-17T14:43:29.275Z,101310.04
2023-01-17T14:45:43.473Z,101309.56
2023-01-17T14:47:57.808Z,101309.21
2023-01-17T14:50:32.187Z,101309.04
2023-01-17T14:52:46.167Z,101308.08
2023-01-17T14:54:59.287Z,101311.04
2023-01-17T14:57:31.682Z,101314.20
2023-01-17T14:59:45.498Z,101314.88
2023-01-17T15:02:08.013Z,101317.13
2023-01-17T15:04:40.416Z,101316.34
2023-01-17T15:06:53.476Z,101313.80
2023-01-17T15:09:11.795Z,101314.33
2023-01-17T15:11:28.899Z,101316.11
2023-01-17T15:13:46.199Z,101319.52
2023-01-17T15:16:09.793Z,101323.95
2023-01-17T15:18:28.927Z,101323.13
2023-01-17T15:20:43.367Z,101324.48
2023-01-17T15:22:56.666Z,101330.94
2023-01-17T15:25:15.467Z,101327.69
2023-01-17T15:27:29.817Z,101330.92
2023-01-17T15:29:43.814Z,101329.98
2023-01-17T15:31:59.863Z,101329.77
2023-01-17T15:34:20.481Z,101331.13
2023-01-17T15:36:36.719Z,101341.19
2023-01-17T15:38:58.854Z,101341.90
2023-01-17T15:41:24.757Z,101342.11
2023-01-17T15:43:37.990Z,101347.52
2023-01-17T15:46:00.249Z,101347.23
2023-01-17T15:48:37.152Z,101344.33
2023-01-17T15:50:50.547Z,101350.17
2023-01-17T15:53:05.871Z,101350.66
2023-01-17T15:55:28.753Z,101347.99
2023-01-17T15:57:42.797Z,101349.43
2023-01-17T16:00:02.578Z,101354.95
2023-01-17T16:02:33.511Z,101353.57
2023-01-17T16:04:47.077Z,101347.91
2023-01-17T16:07:11.837Z,101349.77
2023-01-17T16:09:29.761Z,101352.52
2023-01-17T16:11:43.516Z,101350.30
2023-01-17T16:13:56.493Z,101351.91
2023-01-17T16:16:24.274Z,101355.77
2023-01-17T16:18:37.867Z,101360.58
2023-01-17T16:20:55.259Z,101361.34
2023-01-17T16:23:09.129Z,101357.95
2023-01-17T16:25:24.282Z,101360.58
2023-01-17T16:27:38.939Z,101363.34
2023-01-17T16:29:52.566Z,101362.63
2023-01-17T16:32:09.776Z,101363.80
2023-01-17T16:34:25.122Z,101368.52
2023-01-17T16:36:38.274Z,101375.54
2023-01-17T16:38:52.652Z,101376.25
2023-01-17T16:41:06.665Z,101378.52
2023-01-17T16:43:20.721Z,101383.40
2023-01-17T16:45:40.962Z,101381.70
2023-01-17T16:47:54.388Z,101382.81
2023-01-17T16:50:08.055Z,101384.67
2023-01-17T16:52:21.100Z,101384.80
2023-01-17T16:54:34.086Z,101383.67
2023-01-17T16:56:46.960Z,101384.86
2023-01-17T16:59:00.063Z,101389.00
2023-01-17T17:01:18.385Z,101390.45
2023-01-17T17:03:31.939Z,101395.02
2023-01-17T17:05:46.325Z,101395.92
2023-01-17T17:07:59.686Z,101394.34
2023-01-17T17:10:15.166Z,101399.14
2023-01-17T17:12:29.154Z,101402.48
2023-01-17T17:14:42.359Z,101404.14
2023-01-17T17:16:55.825Z,101404.42
2023-01-17T17:19:10.715Z,101410.80
2023-01-17T17:21:24.199Z,101414.33
2023-01-17T17:23:38.116Z,101413.65
2023-01-17T17:25:58.065Z,101418.64
2023-01-17T17:28:11.497Z,101419.23
2023-01-17T17:30:28.490Z,101420.64
2023-01-17T17:32:41.920Z,101425.98
2023-01-17T17:34:54.926Z,101425.55
2023-01-17T17:37:08.855Z,101429.18
2023-01-17T17:39:22.211Z,101426.63
2023-01-17T17:41:37.496Z,101427.24
2023-01-17T17:43:52.451Z,101424.02
2023-01-17T17:46:06.331Z,101418.83
2023-01-17T17:48:20.116Z,101416.63
2023-01-17T17:50:33.356Z,101417.63
2023-01-17T17:52:46.796Z,101416.73
2023-01-17T17:55:00.445Z,101422.00
2023-01-17T17:57:18.594Z,101421.56
2023-01-17T17:59:33.041Z,101423.77
2023-01-17T18:01:46.928Z,101423.89
2023-01-17T18:04:04.447Z,101423.18
2023-01-17T18:06:18.925Z,101425.22
2023-01-17T18:08:34.831Z,101427.82
2023-01-17T18:10:49.053Z,101431.63
2023-01-17T18:13:02.296Z,101432.20
2023-01-17T18:15:16.336Z,101431.22
2023-01-17T18:17:29.335Z,101436.41
2023-01-17T18:19:43.685Z,101437.13
2023-01-17T18:21:59.268Z,101436.19
2023-01-17T18:24:14.638Z,101441.92
2023-01-17T18:26:29.311Z,101435.94
2023-01-17T18:28:43.167Z,101439.64
2023-01-17T18:30:57.430Z,101439.96
2023-01-17T18:33:11.856Z,101439.60
2023-01-17T18:35:25.369Z,101442.52
2023-01-17T18:37:39.515Z,101442.23
2023-01-17T18:39:52.747Z,101445.50
2023-01-17T18:42:06.067Z,101444.08
2023-01-17T18:44:22.032Z,101440.55
2023-01-17T18:46:35.901Z,101444.13
2023-01-17T18:48:49.100Z,101442.57
2023-01-17T18:51:08.082Z,101444.77
2023-01-17T18:53:21.795Z,101445.46
2023-01-17T18:55:34.717Z,101444.76
2023-01-17T18:57:48.035Z,101441.60
2023-01-17T19:00:00.978Z,101439.77
2023-01-17T19:02:14.918Z,101441.70
2023-01-17T19:04:29.506Z,101438.08
2023-01-17T19:06:44.128Z,101438.36
2023-01-17T19:09:01.127Z,101441.10
2023-01-17T19:11:14.285Z,101434.11
2023-01-17T19:13:27.936Z,101432.80
2023-01-17T19:15:42.017Z,101425.73
2023-01-17T19:17:55.333Z,101424.95
2023-01-17T19:20:10.103Z,101425.08
2023-01-17T19:22:23.771Z,101427.45
2023-01-17T19:24:39.514Z,101422.64
2023-01-17T19:26:55.804Z,101418.94
2023-01-17T19:29:09.787Z,101418.83
2023-01-17T19:31:24.616Z,101419.56
2023-01-17T19:33:40.530Z,101414.66
2023-01-17T19:35:53.665Z,101417.46
2023-01-17T19:38:07.726Z,101418.60
2023-01-17T19:40:22.894Z,101420.52
2023-01-17T19:42:36.395Z,101417.94
2023-01-17T19:44:49.405Z,101416.50
2023-01-17T19:47:02.577Z,101414.35
2023-01-17T19:49:17.535Z,101414.63
2023-01-17T19:51:31.166Z,101413.77
2023-01-17T19:53:45.377Z,101413.29
2023-01-17T19:55:58.490Z,101405.71
2023-01-17T19:58:13.273Z,101404.70
2023-01-17T20:00:30.282Z,101405.61
2023-01-17T20:02:43.991Z,101405.81
2023-01-17T20:04:58.151Z,101403.65
2023-01-17T20:07:11.705Z,101403.04
2023-01-17T20:09:26.364Z,101399.78
2023-01-17T20:11:39.955Z,101398.47
2023-01-17T20:13:55.984Z,101398.36
2023-01-17T20:16:14.804Z,101395.30
2023-01-17T20:18:28.035Z,101390.10
2023-01-17T20:20:56.239Z,101389.70
2023-01-17T20:23:10.954Z,101390.30
2023-01-17T20:25:24.595Z,101386.12
2023-01-17T20:27:38.471Z,101384.75
2023-01-17T20:29:52.705Z,101381.94
2023-01-17T20:32:05.588Z,101383.42
2023-01-17T20:34:20.895Z,101379.61
2023-01-17T20:36:34.968Z,101381.97
2023-01-17T20:38:49.867Z,101379.61
2023-01-17T20:41:03.215Z,101378.90
2023-01-17T20:43:16.215Z,101379.98
2023-01-17T20:45:29.996Z,101383.48
2023-01-17T20:47:42.845Z,101384.17
2023-01-17T20:49:55.695Z,101382.70
2023-01-17T20:52:08.706Z,101376.02
2023-01-17T20:54:22.856Z,101376.15
2023-01-17T20:56:38.971Z,101377.02
2023-01-17T20:58:53.889Z,101368.68
2023-01-17T21:01:06.995Z,101367.55
2023-01-17T21:03:20.081Z,101367.80
2023-01-17T21:05:33.476Z,101365.32
2023-01-17T21:07:48.086Z,101364.50
2023-01-17T21:10:00.989Z,101362.34
2023-01-17T21:12:14.149Z,101356.79
2023-01-17T21:14:27.607Z,101355.58
2023-01-17T21:16:41.634Z,101355.09
2023-01-17T21:18:55.486Z,101350.41
2023-01-17T21:21:15.331Z,101350.41
2023-01-17T21:23:30.304Z,101348.20
2023-01-17T21:25:43.346Z,101348.43
2023-01-17T21:27:58.360Z,101342.13
2023-01-17T21:30:13.846Z,101339.77
2023-01-17T21:32:30.208Z,101335.09
2023-01-17T21:34:43.286Z,101330.52
2023-01-17T21:36:56.566Z,101329.33
2023-01-17T21:39:13.617Z,101326.02
2023-01-17T21:41:28.420Z,101328.31
2023-01-17T21:43:41.385Z,101329.70
2023-01-17T21:45:55.549Z,101329.66
2023-01-17T21:48:09.677Z,101332.11
2023-01-17T21:50:33.068Z,101328.98
2023-01-17T21:52:47.427Z,101320.98
2023-01-17T21:55:17.473Z,101319.16
2023-01-17T21:57:47.183Z,101318.45
2023-01-17T22:00:00.186Z,101314.23
2023-01-17T22:02:13.409Z,101313.93
2023-01-17T22:04:26.946Z,101313.50
2023-01-17T22:06:41.434Z,101309.20
2023-01-17T22:08:54.417Z,101317.42
2023-01-17T22:11:12.683Z,101320.12
2023-01-17T22:13:26.235Z,101316.50
2023-01-17T22:15:39.543Z,101316.07
2023-01-17T22:17:52.512Z,101317.08
2023-01-17T22:20:05.435Z,101314.74
2023-01-17T22:22:19.013Z,101309.32
2023-01-17T22:24:32.003Z,101310.91
2023-01-17T22:26:45.285Z,101316.77
2023-01-17T22:28:59.205Z,101315.98
2023-01-17T22:31:18.173Z,101325.20
2023-01-17T22:33:31.335Z,101323.91
2023-01-17T22:35:44.815Z,101327.86
2023-01-17T22:37:58.259Z,101335.17
2023-01-17T22:40:13.675Z,101327.80
2023-01-17T22:42:26.817Z,101328.99
2023-01-17T22:44:40.996Z,101326.13
2023-01-17T22:46:54.657Z,101322.86
2023-01-17T22:49:09.586Z,101318.33
2023-01-17T22:51:23.785Z,101319.69
2023-01-17T22:53:37.921Z,101319.45
2023-01-17T22:55:50.926Z,101319.51
2023-01-17T22:58:04.203Z,101317.85
2023-01-17T23:00:19.022Z,101318.80
2023-01-17T23:02:32.387Z,101316.52
2023-01-17T23:04:45.474Z,101315.95
2023-01-17T23:06:59.035Z,101311.98
2023-01-17T23:09:15.757Z,101314.48
2023-01-17T23:11:44.508Z,101312.47
2023-01-17T23:13:59.796Z,101318.26
2023-01-17T23:16:31.026Z,101318.23
2023-01-17T23:19:05.756Z,101322.10
2023-01-17T23:22:03.610Z,101320.48
2023-01-17T23:24:25.352Z,101320.88
2023-01-17T23:27:18.155Z,101321.58
2023-01-17T23:29:37.836Z,101319.92
2023-01-17T23:31:59.375Z,101317.86
2023-01-17T23:34:22.031Z,101317.30
2023-01-17T23:36:39.186Z,101308.28
2023-01-17T23:38:52.700Z,101307.21
2023-01-17T23:41:27.352Z,101306.52
2023-01-17T23:43:41.558Z,101314.64
2023-01-17T23:45:55.896Z,101311.42
2023-01-17T23:48:10.614Z,101316.20
2023-01-17T23:50:24.198Z,101316.23
2023-01-17T23:52:38.196Z,101310.39
2023-01-17T23:54:52.779Z,101308.13
2023-01-17T23:57:05.711Z,101302.01
2023-01-17T23:59:19.556Z,101303.73
